sensor_id;sensor_type;location;lat;lon;timestamp;P1;durP1;ratioP1;P2;durP2;ratioP2
2646;SDS011;1333;50.958;6.770;2022-08-01T00:01:22;1.50;;;1.30;;
2646;SDS011;1333;50.958;6.770;2022-08-01T00:03:48;1.67;;;1.17;;
2646;SDS011;1333;50.958;6.770;2022-08-01T00:06:13;1.20;;;1.07;;
2646;SDS011;1333;50.958;6.770;2022-08-01T00:08:39;1.40;;;1.23;;
2646;SDS011;1333;50.958;6.770;2022-08-01T00:11:04;1.47;;;1.20;;
2646;SDS011;1333;50.958;6.770;2022-08-01T00:13:30;1.70;;;0.93;;
2646;SDS011;1333;50.958;6.770;2022-08-01T00:15:56;1.77;;;1.20;;
2646;SDS011;1333;50.958;6.770;2022-08-01T00:18:21;1.73;;;1.47;;
2646;SDS011;1333;50.958;6.770;2022-08-01T00:20:47;1.90;;;1.70;;
2646;SDS011;1333;50.958;6.770;2022-08-01T00:23:12;1.60;;;1.30;;
2646;SDS011;1333;50.958;6.770;2022-08-01T00:25:38;2.10;;;1.70;;
2646;SDS011;1333;50.958;6.770;2022-08-01T00:28:03;1.50;;;1.40;;
2646;SDS011;1333;50.958;6.770;2022-08-01T00:30:33;2.00;;;1.37;;
2646;SDS011;1333;50.958;6.770;2022-08-01T00:32:59;1.40;;;1.00;;
2646;SDS011;1333;50.958;6.770;2022-08-01T00:35:24;1.50;;;1.30;;
2646;SDS011;1333;50.958;6.770;2022-08-01T00:37:50;1.30;;;1.17;;
2646;SDS011;1333;50.958;6.770;2022-08-01T00:40:16;1.23;;;1.13;;
2646;SDS011;1333;50.958;6.770;2022-08-01T00:42:42;2.03;;;1.67;;
2646;SDS011;1333;50.958;6.770;2022-08-01T00:45:07;2.27;;;1.70;;
2646;SDS011;1333;50.958;6.770;2022-08-01T00:47:33;1.80;;;1.50;;
2646;SDS011;1333;50.958;6.770;2022-08-01T00:49:59;5.00;;;1.87;;
2646;SDS011;1333;50.958;6.770;2022-08-01T00:52:25;1.93;;;1.30;;
2646;SDS011;1333;50.958;6.770;2022-08-01T00:54:50;2.27;;;1.23;;
2646;SDS011;1333;50.958;6.770;2022-08-01T00:57:16;2.63;;;1.67;;
2646;SDS011;1333;50.958;6.770;2022-08-01T00:59:42;1.77;;;1.50;;
2646;SDS011;1333;50.958;6.770;2022-08-01T01:02:07;1.53;;;1.37;;
2646;SDS011;1333;50.958;6.770;2022-08-01T01:04:33;1.70;;;1.27;;
2646;SDS011;1333;50.958;6.770;2022-08-01T01:07:19;1.47;;;1.30;;
2646;SDS011;1333;50.958;6.770;2022-08-01T01:10:03;2.40;;;1.67;;
2646;SDS011;1333;50.958;6.770;2022-08-01T01:12:52;2.57;;;1.47;;
2646;SDS011;1333;50.958;6.770;2022-08-01T01:16:08;2.03;;;1.60;;
2646;SDS011;1333;50.958;6.770;2022-08-01T01:18:23;1.50;;;1.30;;
2646;SDS011;1333;50.958;6.770;2022-08-01T01:31:55;1.60;;;1.50;;
2646;SDS011;1333;50.958;6.770;2022-08-01T01:34:27;1.97;;;1.77;;
2646;SDS011;1333;50.958;6.770;2022-08-01T01:36:55;2.53;;;1.77;;
2646;SDS011;1333;50.958;6.770;2022-08-01T01:39:23;2.70;;;1.33;;
2646;SDS011;1333;50.958;6.770;2022-08-01T01:41:51;1.93;;;1.70;;
2646;SDS011;1333;50.958;6.770;2022-08-01T01:44:20;1.83;;;1.40;;
2646;SDS011;1333;50.958;6.770;2022-08-01T01:46:45;3.20;;;1.40;;
2646;SDS011;1333;50.958;6.770;2022-08-01T01:49:13;1.83;;;1.70;;
2646;SDS011;1333;50.958;6.770;2022-08-01T01:51:40;1.87;;;1.40;;
2646;SDS011;1333;50.958;6.770;2022-08-01T01:54:07;2.00;;;1.33;;
2646;SDS011;1333;50.958;6.770;2022-08-01T01:56:34;1.97;;;1.50;;
2646;SDS011;1333;50.958;6.770;2022-08-01T01:59:13;1.50;;;1.20;;
2646;SDS011;1333;50.958;6.770;2022-08-01T02:01:41;2.33;;;1.60;;
2646;SDS011;1333;50.958;6.770;2022-08-01T02:04:07;1.30;;;1.20;;
2646;SDS011;1333;50.958;6.770;2022-08-01T02:06:34;2.53;;;1.67;;
2646;SDS011;1333;50.958;6.770;2022-08-01T02:09:01;1.57;;;1.47;;
2646;SDS011;1333;50.958;6.770;2022-08-01T02:11:28;1.90;;;1.60;;
2646;SDS011;1333;50.958;6.770;2022-08-01T02:13:55;5.50;;;1.90;;
2646;SDS011;1333;50.958;6.770;2022-08-01T02:16:32;2.87;;;2.23;;
2646;SDS011;1333;50.958;6.770;2022-08-01T02:19:00;2.37;;;1.63;;
2646;SDS011;1333;50.958;6.770;2022-08-01T02:21:37;1.53;;;1.17;;
2646;SDS011;1333;50.958;6.770;2022-08-01T02:24:09;2.10;;;1.80;;
2646;SDS011;1333;50.958;6.770;2022-08-01T02:26:40;2.13;;;1.30;;
2646;SDS011;1333;50.958;6.770;2022-08-01T02:29:10;1.40;;;1.20;;
2646;SDS011;1333;50.958;6.770;2022-08-01T02:31:38;1.67;;;1.30;;
2646;SDS011;1333;50.958;6.770;2022-08-01T02:34:07;1.83;;;1.07;;
2646;SDS011;1333;50.958;6.770;2022-08-01T02:36:36;1.80;;;1.43;;
2646;SDS011;1333;50.958;6.770;2022-08-01T02:39:04;2.70;;;1.63;;
2646;SDS011;1333;50.958;6.770;2022-08-01T02:41:35;1.70;;;1.50;;
2646;SDS011;1333;50.958;6.770;2022-08-01T02:44:05;7.27;;;2.50;;
2646;SDS011;1333;50.958;6.770;2022-08-01T02:46:38;2.70;;;1.90;;
2646;SDS011;1333;50.958;6.770;2022-08-01T02:49:06;1.93;;;1.60;;
2646;SDS011;1333;50.958;6.770;2022-08-01T02:51:34;1.90;;;1.60;;
2646;SDS011;1333;50.958;6.770;2022-08-01T02:54:01;1.87;;;1.40;;
2646;SDS011;1333;50.958;6.770;2022-08-01T02:56:29;2.10;;;1.63;;
2646;SDS011;1333;50.958;6.770;2022-08-01T02:59:04;2.17;;;1.40;;
2646;SDS011;1333;50.958;6.770;2022-08-01T03:01:33;2.47;;;1.63;;
2646;SDS011;1333;50.958;6.770;2022-08-01T03:04:00;1.93;;;1.57;;
2646;SDS011;1333;50.958;6.770;2022-08-01T03:06:26;3.17;;;1.67;;
2646;SDS011;1333;50.958;6.770;2022-08-01T03:08:54;1.83;;;1.43;;
2646;SDS011;1333;50.958;6.770;2022-08-01T03:11:20;4.70;;;2.67;;
2646;SDS011;1333;50.958;6.770;2022-08-01T03:13:49;2.10;;;1.90;;
2646;SDS011;1333;50.958;6.770;2022-08-01T03:16:16;1.87;;;1.63;;
2646;SDS011;1333;50.958;6.770;2022-08-01T03:18:43;2.40;;;2.10;;
2646;SDS011;1333;50.958;6.770;2022-08-01T03:21:10;2.23;;;2.03;;
2646;SDS011;1333;50.958;6.770;2022-08-01T03:23:38;2.43;;;1.80;;
2646;SDS011;1333;50.958;6.770;2022-08-01T03:26:06;2.20;;;1.87;;
2646;SDS011;1333;50.958;6.770;2022-08-01T03:28:32;2.33;;;1.90;;
2646;SDS011;1333;50.958;6.770;2022-08-01T03:30:58;1.93;;;1.50;;
2646;SDS011;1333;50.958;6.770;2022-08-01T03:33:26;2.37;;;1.50;;
2646;SDS011;1333;50.958;6.770;2022-08-01T03:35:53;2.37;;;1.63;;
2646;SDS011;1333;50.958;6.770;2022-08-01T03:38:21;2.43;;;2.00;;
2646;SDS011;1333;50.958;6.770;2022-08-01T03:40:53;4.43;;;2.10;;
2646;SDS011;1333;50.958;6.770;2022-08-01T03:46:05;1.77;;;1.60;;
2646;SDS011;1333;50.958;6.770;2022-08-01T03:48:43;3.50;;;2.23;;
2646;SDS011;1333;50.958;6.770;2022-08-01T03:51:13;5.50;;;2.70;;
2646;SDS011;1333;50.958;6.770;2022-08-01T03:53:39;3.13;;;2.40;;
2646;SDS011;1333;50.958;6.770;2022-08-01T03:56:07;2.40;;;2.00;;
2646;SDS011;1333;50.958;6.770;2022-08-01T03:58:34;2.50;;;2.23;;
2646;SDS011;1333;50.958;6.770;2022-08-01T04:01:03;2.60;;;2.07;;
2646;SDS011;1333;50.958;6.770;2022-08-01T04:03:30;3.90;;;2.60;;
2646;SDS011;1333;50.958;6.770;2022-08-01T04:05:57;5.27;;;2.60;;
2646;SDS011;1333;50.958;6.770;2022-08-01T04:08:22;3.70;;;2.10;;
2646;SDS011;1333;50.958;6.770;2022-08-01T04:10:48;3.07;;;2.37;;
2646;SDS011;1333;50.958;6.770;2022-08-01T04:13:13;3.70;;;2.73;;
2646;SDS011;1333;50.958;6.770;2022-08-01T04:15:39;3.63;;;2.20;;
2646;SDS011;1333;50.958;6.770;2022-08-01T04:18:04;5.30;;;2.70;;
2646;SDS011;1333;50.958;6.770;2022-08-01T04:20:31;3.17;;;2.87;;
2646;SDS011;1333;50.958;6.770;2022-08-01T04:22:57;4.70;;;2.50;;
2646;SDS011;1333;50.958;6.770;2022-08-01T04:25:26;3.33;;;2.53;;
2646;SDS011;1333;50.958;6.770;2022-08-01T04:27:57;2.83;;;2.30;;
2646;SDS011;1333;50.958;6.770;2022-08-01T04:30:26;3.57;;;2.80;;
2646;SDS011;1333;50.958;6.770;2022-08-01T04:32:55;2.77;;;2.40;;
2646;SDS011;1333;50.958;6.770;2022-08-01T04:35:23;3.20;;;2.87;;
2646;SDS011;1333;50.958;6.770;2022-08-01T04:37:51;5.33;;;2.80;;
2646;SDS011;1333;50.958;6.770;2022-08-01T04:40:17;3.10;;;2.47;;
2646;SDS011;1333;50.958;6.770;2022-08-01T04:42:46;2.53;;;2.20;;
2646;SDS011;1333;50.958;6.770;2022-08-01T04:45:14;3.20;;;2.10;;
2646;SDS011;1333;50.958;6.770;2022-08-01T04:47:40;5.60;;;3.10;;
2646;SDS011;1333;50.958;6.770;2022-08-01T04:50:08;1.97;;;1.77;;
2646;SDS011;1333;50.958;6.770;2022-08-01T04:52:34;3.40;;;2.60;;
2646;SDS011;1333;50.958;6.770;2022-08-01T04:55:01;2.87;;;2.57;;
2646;SDS011;1333;50.958;6.770;2022-08-01T04:57:27;2.90;;;2.33;;
2646;SDS011;1333;50.958;6.770;2022-08-01T04:59:53;4.40;;;2.50;;
2646;SDS011;1333;50.958;6.770;2022-08-01T05:02:22;3.87;;;2.33;;
2646;SDS011;1333;50.958;6.770;2022-08-01T05:04:48;3.47;;;3.00;;
2646;SDS011;1333;50.958;6.770;2022-08-01T05:07:14;4.53;;;2.67;;
2646;SDS011;1333;50.958;6.770;2022-08-01T05:09:41;6.43;;;2.73;;
2646;SDS011;1333;50.958;6.770;2022-08-01T05:12:07;3.70;;;2.60;;
2646;SDS011;1333;50.958;6.770;2022-08-01T05:14:34;5.17;;;3.67;;
2646;SDS011;1333;50.958;6.770;2022-08-01T05:17:00;5.67;;;3.80;;
2646;SDS011;1333;50.958;6.770;2022-08-01T05:19:28;4.43;;;3.37;;
2646;SDS011;1333;50.958;6.770;2022-08-01T05:22:01;6.37;;;4.27;;
2646;SDS011;1333;50.958;6.770;2022-08-01T05:24:29;4.33;;;3.93;;
2646;SDS011;1333;50.958;6.770;2022-08-01T05:26:59;3.67;;;3.23;;
2646;SDS011;1333;50.958;6.770;2022-08-01T05:29:25;5.23;;;3.90;;
2646;SDS011;1333;50.958;6.770;2022-08-01T05:31:52;5.80;;;4.50;;
2646;SDS011;1333;50.958;6.770;2022-08-01T05:34:17;4.60;;;4.00;;
2646;SDS011;1333;50.958;6.770;2022-08-01T05:36:43;7.10;;;3.80;;
2646;SDS011;1333;50.958;6.770;2022-08-01T05:39:09;5.70;;;5.10;;
2646;SDS011;1333;50.958;6.770;2022-08-01T05:41:35;8.43;;;4.10;;
2646;SDS011;1333;50.958;6.770;2022-08-01T05:44:05;8.37;;;4.57;;
2646;SDS011;1333;50.958;6.770;2022-08-01T05:46:31;7.23;;;3.67;;
2646;SDS011;1333;50.958;6.770;2022-08-01T05:48:58;4.80;;;3.53;;
2646;SDS011;1333;50.958;6.770;2022-08-01T05:51:24;4.67;;;3.43;;
2646;SDS011;1333;50.958;6.770;2022-08-01T05:53:51;5.10;;;3.67;;
2646;SDS011;1333;50.958;6.770;2022-08-01T05:56:16;8.20;;;4.63;;
2646;SDS011;1333;50.958;6.770;2022-08-01T05:58:42;5.40;;;4.10;;
2646;SDS011;1333;50.958;6.770;2022-08-01T06:01:08;5.90;;;5.30;;
2646;SDS011;1333;50.958;6.770;2022-08-01T06:03:33;5.30;;;3.73;;
2646;SDS011;1333;50.958;6.770;2022-08-01T06:05:59;6.77;;;4.27;;
2646;SDS011;1333;50.958;6.770;2022-08-01T06:08:25;4.47;;;3.50;;
2646;SDS011;1333;50.958;6.770;2022-08-01T06:10:51;7.60;;;4.10;;
2646;SDS011;1333;50.958;6.770;2022-08-01T06:13:17;4.50;;;3.50;;
2646;SDS011;1333;50.958;6.770;2022-08-01T06:15:44;4.30;;;3.80;;
2646;SDS011;1333;50.958;6.770;2022-08-01T06:18:10;7.07;;;4.37;;
2646;SDS011;1333;50.958;6.770;2022-08-01T06:20:36;4.50;;;3.17;;
2646;SDS011;1333;50.958;6.770;2022-08-01T06:23:01;8.03;;;4.20;;
2646;SDS011;1333;50.958;6.770;2022-08-01T06:25:27;6.63;;;3.77;;
2646;SDS011;1333;50.958;6.770;2022-08-01T06:27:52;5.40;;;4.63;;
2646;SDS011;1333;50.958;6.770;2022-08-01T06:30:18;5.80;;;4.40;;
2646;SDS011;1333;50.958;6.770;2022-08-01T06:32:43;5.47;;;4.07;;
2646;SDS011;1333;50.958;6.770;2022-08-01T06:35:09;5.37;;;4.17;;
2646;SDS011;1333;50.958;6.770;2022-08-01T06:37:35;3.90;;;3.00;;
2646;SDS011;1333;50.958;6.770;2022-08-01T06:40:09;5.43;;;3.50;;
2646;SDS011;1333;50.958;6.770;2022-08-01T06:42:36;5.93;;;3.33;;
2646;SDS011;1333;50.958;6.770;2022-08-01T06:45:02;4.33;;;3.43;;
2646;SDS011;1333;50.958;6.770;2022-08-01T06:47:29;4.90;;;3.90;;
2646;SDS011;1333;50.958;6.770;2022-08-01T06:49:55;6.40;;;4.70;;
2646;SDS011;1333;50.958;6.770;2022-08-01T06:52:20;4.87;;;3.80;;
2646;SDS011;1333;50.958;6.770;2022-08-01T06:54:46;6.07;;;3.73;;
2646;SDS011;1333;50.958;6.770;2022-08-01T06:57:11;5.90;;;4.13;;
2646;SDS011;1333;50.958;6.770;2022-08-01T06:59:37;4.77;;;3.90;;
2646;SDS011;1333;50.958;6.770;2022-08-01T07:02:03;4.90;;;3.70;;
2646;SDS011;1333;50.958;6.770;2022-08-01T07:04:28;3.47;;;3.17;;
2646;SDS011;1333;50.958;6.770;2022-08-01T07:06:54;4.57;;;3.50;;
2646;SDS011;1333;50.958;6.770;2022-08-01T07:09:20;5.10;;;4.60;;
2646;SDS011;1333;50.958;6.770;2022-08-01T07:11:45;4.53;;;3.40;;
2646;SDS011;1333;50.958;6.770;2022-08-01T07:14:11;3.90;;;3.50;;
2646;SDS011;1333;50.958;6.770;2022-08-01T07:16:36;7.00;;;4.27;;
2646;SDS011;1333;50.958;6.770;2022-08-01T07:19:02;5.57;;;4.97;;
2646;SDS011;1333;50.958;6.770;2022-08-01T07:21:27;6.47;;;3.30;;
2646;SDS011;1333;50.958;6.770;2022-08-01T07:23:53;4.30;;;3.90;;
2646;SDS011;1333;50.958;6.770;2022-08-01T07:26:18;4.20;;;3.53;;
2646;SDS011;1333;50.958;6.770;2022-08-01T07:28:44;4.33;;;3.93;;
2646;SDS011;1333;50.958;6.770;2022-08-01T07:31:09;8.33;;;3.83;;
2646;SDS011;1333;50.958;6.770;2022-08-01T07:33:35;6.10;;;4.00;;
2646;SDS011;1333;50.958;6.770;2022-08-01T07:36:01;5.23;;;4.73;;
2646;SDS011;1333;50.958;6.770;2022-08-01T07:38:28;6.23;;;3.97;;
2646;SDS011;1333;50.958;6.770;2022-08-01T07:40:54;4.90;;;3.57;;
2646;SDS011;1333;50.958;6.770;2022-08-01T07:43:19;3.83;;;3.10;;
2646;SDS011;1333;50.958;6.770;2022-08-01T07:45:45;6.67;;;5.10;;
2646;SDS011;1333;50.958;6.770;2022-08-01T07:48:11;4.47;;;4.03;;
2646;SDS011;1333;50.958;6.770;2022-08-01T07:50:36;6.63;;;5.07;;
2646;SDS011;1333;50.958;6.770;2022-08-01T07:53:02;4.67;;;4.23;;
2646;SDS011;1333;50.958;6.770;2022-08-01T07:55:28;7.53;;;4.03;;
2646;SDS011;1333;50.958;6.770;2022-08-01T07:57:54;6.50;;;3.90;;
2646;SDS011;1333;50.958;6.770;2022-08-01T08:00:19;4.57;;;3.17;;
2646;SDS011;1333;50.958;6.770;2022-08-01T08:02:45;4.73;;;3.97;;
2646;SDS011;1333;50.958;6.770;2022-08-01T08:05:11;6.10;;;4.30;;
2646;SDS011;1333;50.958;6.770;2022-08-01T08:07:36;3.93;;;3.27;;
2646;SDS011;1333;50.958;6.770;2022-08-01T08:10:03;8.30;;;4.87;;
2646;SDS011;1333;50.958;6.770;2022-08-01T08:12:29;3.60;;;3.30;;
2646;SDS011;1333;50.958;6.770;2022-08-01T08:14:55;4.63;;;4.13;;
2646;SDS011;1333;50.958;6.770;2022-08-01T08:17:23;5.57;;;3.50;;
2646;SDS011;1333;50.958;6.770;2022-08-01T08:19:49;4.60;;;3.50;;
2646;SDS011;1333;50.958;6.770;2022-08-01T08:22:14;4.87;;;4.47;;
2646;SDS011;1333;50.958;6.770;2022-08-01T08:24:40;4.53;;;4.07;;
2646;SDS011;1333;50.958;6.770;2022-08-01T08:27:05;3.77;;;3.43;;
2646;SDS011;1333;50.958;6.770;2022-08-01T08:29:32;3.50;;;3.20;;
2646;SDS011;1333;50.958;6.770;2022-08-01T08:31:58;4.37;;;3.97;;
2646;SDS011;1333;50.958;6.770;2022-08-01T08:34:25;4.73;;;3.27;;
2646;SDS011;1333;50.958;6.770;2022-08-01T08:36:52;5.50;;;4.03;;
2646;SDS011;1333;50.958;6.770;2022-08-01T08:39:18;4.13;;;3.67;;
2646;SDS011;1333;50.958;6.770;2022-08-01T08:41:43;3.47;;;3.17;;
2646;SDS011;1333;50.958;6.770;2022-08-01T08:44:09;3.50;;;3.20;;
2646;SDS011;1333;50.958;6.770;2022-08-01T08:46:40;3.87;;;3.47;;
2646;SDS011;1333;50.958;6.770;2022-08-01T08:49:08;3.37;;;3.07;;
2646;SDS011;1333;50.958;6.770;2022-08-01T08:51:35;3.13;;;2.80;;
2646;SDS011;1333;50.958;6.770;2022-08-01T08:54:03;4.40;;;3.10;;
2646;SDS011;1333;50.958;6.770;2022-08-01T08:56:30;4.60;;;4.20;;
2646;SDS011;1333;50.958;6.770;2022-08-01T08:58:59;3.97;;;3.57;;
2646;SDS011;1333;50.958;6.770;2022-08-01T09:01:26;4.23;;;3.83;;
2646;SDS011;1333;50.958;6.770;2022-08-01T09:03:51;4.10;;;3.73;;
2646;SDS011;1333;50.958;6.770;2022-08-01T09:06:18;4.50;;;3.90;;
2646;SDS011;1333;50.958;6.770;2022-08-01T09:08:44;4.67;;;3.90;;
2646;SDS011;1333;50.958;6.770;2022-08-01T09:11:10;5.80;;;4.10;;
2646;SDS011;1333;50.958;6.770;2022-08-01T09:13:35;4.00;;;3.60;;
2646;SDS011;1333;50.958;6.770;2022-08-01T09:16:01;7.23;;;3.47;;
2646;SDS011;1333;50.958;6.770;2022-08-01T09:18:31;4.87;;;4.20;;
2646;SDS011;1333;50.958;6.770;2022-08-01T09:23:48;4.70;;;3.93;;
2646;SDS011;1333;50.958;6.770;2022-08-01T09:26:17;4.20;;;3.37;;
2646;SDS011;1333;50.958;6.770;2022-08-01T09:28:45;4.97;;;3.83;;
2646;SDS011;1333;50.958;6.770;2022-08-01T09:31:15;4.67;;;4.00;;
2646;SDS011;1333;50.958;6.770;2022-08-01T09:33:55;3.70;;;3.37;;
2646;SDS011;1333;50.958;6.770;2022-08-01T09:36:24;11.80;;;8.10;;
2646;SDS011;1333;50.958;6.770;2022-08-01T09:38:50;10.63;;;4.57;;
2646;SDS011;1333;50.958;6.770;2022-08-01T09:41:17;4.63;;;4.00;;
2646;SDS011;1333;50.958;6.770;2022-08-01T09:43:56;3.50;;;3.20;;
2646;SDS011;1333;50.958;6.770;2022-08-01T09:46:22;5.23;;;3.40;;
2646;SDS011;1333;50.958;6.770;2022-08-01T09:48:55;4.67;;;3.70;;
2646;SDS011;1333;50.958;6.770;2022-08-01T09:51:27;3.57;;;3.27;;
2646;SDS011;1333;50.958;6.770;2022-08-01T09:53:54;3.90;;;3.60;;
2646;SDS011;1333;50.958;6.770;2022-08-01T09:56:21;3.77;;;3.47;;
2646;SDS011;1333;50.958;6.770;2022-08-01T10:01:16;3.60;;;3.00;;
2646;SDS011;1333;50.958;6.770;2022-08-01T10:03:42;3.60;;;3.30;;
2646;SDS011;1333;50.958;6.770;2022-08-01T10:06:20;3.53;;;3.20;;
2646;SDS011;1333;50.958;6.770;2022-08-01T10:08:47;5.57;;;3.67;;
2646;SDS011;1333;50.958;6.770;2022-08-01T10:11:13;13.63;;;3.20;;
2646;SDS011;1333;50.958;6.770;2022-08-01T10:13:39;3.13;;;2.90;;
2646;SDS011;1333;50.958;6.770;2022-08-01T10:16:05;3.20;;;2.90;;
2646;SDS011;1333;50.958;6.770;2022-08-01T10:18:32;3.20;;;2.90;;
2646;SDS011;1333;50.958;6.770;2022-08-01T10:21:00;3.33;;;3.07;;
2646;SDS011;1333;50.958;6.770;2022-08-01T10:23:26;5.70;;;3.40;;
2646;SDS011;1333;50.958;6.770;2022-08-01T10:25:55;3.63;;;3.33;;
2646;SDS011;1333;50.958;6.770;2022-08-01T10:28:25;3.47;;;3.00;;
2646;SDS011;1333;50.958;6.770;2022-08-01T10:30:53;3.60;;;2.93;;
2646;SDS011;1333;50.958;6.770;2022-08-01T10:33:21;2.80;;;2.60;;
2646;SDS011;1333;50.958;6.770;2022-08-01T10:35:47;4.07;;;3.10;;
2646;SDS011;1333;50.958;6.770;2022-08-01T10:38:13;3.70;;;3.40;;
2646;SDS011;1333;50.958;6.770;2022-08-01T10:40:40;2.77;;;2.57;;
2646;SDS011;1333;50.958;6.770;2022-08-01T10:43:06;3.10;;;2.80;;
2646;SDS011;1333;50.958;6.770;2022-08-01T10:45:34;3.10;;;2.53;;
2646;SDS011;1333;50.958;6.770;2022-08-01T10:50:48;3.20;;;2.90;;
2646;SDS011;1333;50.958;6.770;2022-08-01T10:53:21;3.37;;;3.07;;
2646;SDS011;1333;50.958;6.770;2022-08-01T11:06:35;8.60;;;2.77;;
2646;SDS011;1333;50.958;6.770;2022-08-01T11:11:57;2.60;;;2.40;;
2646;SDS011;1333;50.958;6.770;2022-08-01T11:14:32;3.20;;;2.37;;
2646;SDS011;1333;50.958;6.770;2022-08-01T11:20:06;2.87;;;2.67;;
2646;SDS011;1333;50.958;6.770;2022-08-01T11:25:24;2.63;;;2.43;;
2646;SDS011;1333;50.958;6.770;2022-08-01T11:30:47;3.20;;;3.00;;
2646;SDS011;1333;50.958;6.770;2022-08-01T11:33:18;3.03;;;2.57;;
2646;SDS011;1333;50.958;6.770;2022-08-01T11:38:45;2.47;;;2.27;;
2646;SDS011;1333;50.958;6.770;2022-08-01T11:41:37;2.40;;;2.20;;
2646;SDS011;1333;50.958;6.770;2022-08-01T11:44:09;2.77;;;2.57;;
2646;SDS011;1333;50.958;6.770;2022-08-01T11:49:23;2.50;;;2.40;;
2646;SDS011;1333;50.958;6.770;2022-08-01T11:52:05;1.97;;;1.87;;
2646;SDS011;1333;50.958;6.770;2022-08-01T11:54:32;2.97;;;2.77;;
2646;SDS011;1333;50.958;6.770;2022-08-01T11:57:03;2.63;;;2.47;;
2646;SDS011;1333;50.958;6.770;2022-08-01T11:59:37;2.90;;;2.70;;
2646;SDS011;1333;50.958;6.770;2022-08-01T12:02:17;2.70;;;2.50;;
2646;SDS011;1333;50.958;6.770;2022-08-01T12:04:57;2.33;;;2.20;;
2646;SDS011;1333;50.958;6.770;2022-08-01T12:07:35;2.23;;;2.03;;
2646;SDS011;1333;50.958;6.770;2022-08-01T12:10:03;2.57;;;2.40;;
2646;SDS011;1333;50.958;6.770;2022-08-01T12:12:36;2.77;;;2.57;;
2646;SDS011;1333;50.958;6.770;2022-08-01T12:15:08;5.03;;;2.47;;
2646;SDS011;1333;50.958;6.770;2022-08-01T12:17:35;3.20;;;2.87;;
2646;SDS011;1333;50.958;6.770;2022-08-01T12:20:03;2.63;;;2.43;;
2646;SDS011;1333;50.958;6.770;2022-08-01T12:22:34;2.50;;;2.10;;
2646;SDS011;1333;50.958;6.770;2022-08-01T12:25:07;3.10;;;2.73;;
2646;SDS011;1333;50.958;6.770;2022-08-01T12:27:34;2.43;;;2.23;;
2646;SDS011;1333;50.958;6.770;2022-08-01T12:30:00;2.63;;;2.40;;
2646;SDS011;1333;50.958;6.770;2022-08-01T12:32:30;2.10;;;1.93;;
2646;SDS011;1333;50.958;6.770;2022-08-01T12:35:01;2.30;;;2.10;;
2646;SDS011;1333;50.958;6.770;2022-08-01T12:37:30;2.30;;;2.10;;
2646;SDS011;1333;50.958;6.770;2022-08-01T12:39:57;2.53;;;2.33;;
2646;SDS011;1333;50.958;6.770;2022-08-01T12:42:24;2.60;;;2.40;;
2646;SDS011;1333;50.958;6.770;2022-08-01T12:44:50;2.63;;;2.13;;
2646;SDS011;1333;50.958;6.770;2022-08-01T12:47:17;2.03;;;1.83;;
2646;SDS011;1333;50.958;6.770;2022-08-01T12:49:45;2.47;;;2.10;;
2646;SDS011;1333;50.958;6.770;2022-08-01T12:52:12;2.70;;;2.00;;
2646;SDS011;1333;50.958;6.770;2022-08-01T12:57:33;4.23;;;2.23;;
2646;SDS011;1333;50.958;6.770;2022-08-01T13:00:10;2.50;;;2.30;;
2646;SDS011;1333;50.958;6.770;2022-08-01T13:02:37;2.00;;;1.80;;
2646;SDS011;1333;50.958;6.770;2022-08-01T13:05:04;2.10;;;1.90;;
2646;SDS011;1333;50.958;6.770;2022-08-01T13:07:37;1.73;;;1.60;;
2646;SDS011;1333;50.958;6.770;2022-08-01T13:10:03;2.00;;;1.80;;
2646;SDS011;1333;50.958;6.770;2022-08-01T13:12:30;2.10;;;1.90;;
2646;SDS011;1333;50.958;6.770;2022-08-01T13:14:56;2.00;;;1.83;;
2646;SDS011;1333;50.958;6.770;2022-08-01T13:17:33;1.57;;;1.47;;
2646;SDS011;1333;50.958;6.770;2022-08-01T13:20:03;1.27;;;1.10;;
2646;SDS011;1333;50.958;6.770;2022-08-01T13:22:36;2.20;;;1.90;;
2646;SDS011;1333;50.958;6.770;2022-08-01T13:25:09;1.73;;;1.63;;
2646;SDS011;1333;50.958;6.770;2022-08-01T13:27:38;1.57;;;1.47;;
2646;SDS011;1333;50.958;6.770;2022-08-01T13:30:11;2.83;;;2.50;;
2646;SDS011;1333;50.958;6.770;2022-08-01T13:32:56;4.43;;;1.60;;
2646;SDS011;1333;50.958;6.770;2022-08-01T13:35:23;1.83;;;1.73;;
2646;SDS011;1333;50.958;6.770;2022-08-01T13:37:48;1.90;;;1.67;;
2646;SDS011;1333;50.958;6.770;2022-08-01T13:40:22;1.93;;;1.63;;
2646;SDS011;1333;50.958;6.770;2022-08-01T13:42:51;2.50;;;2.30;;
2646;SDS011;1333;50.958;6.770;2022-08-01T13:45:17;1.50;;;1.40;;
2646;SDS011;1333;50.958;6.770;2022-08-01T13:47:43;2.63;;;1.67;;
2646;SDS011;1333;50.958;6.770;2022-08-01T13:50:08;2.23;;;1.73;;
2646;SDS011;1333;50.958;6.770;2022-08-01T13:52:34;1.97;;;1.40;;
2646;SDS011;1333;50.958;6.770;2022-08-01T13:54:59;1.60;;;1.50;;
2646;SDS011;1333;50.958;6.770;2022-08-01T13:57:26;1.83;;;1.60;;
2646;SDS011;1333;50.958;6.770;2022-08-01T13:59:52;2.53;;;1.87;;
2646;SDS011;1333;50.958;6.770;2022-08-01T14:02:18;1.30;;;1.20;;
2646;SDS011;1333;50.958;6.770;2022-08-01T14:04:44;1.83;;;1.73;;
2646;SDS011;1333;50.958;6.770;2022-08-01T14:07:09;1.87;;;1.77;;
2646;SDS011;1333;50.958;6.770;2022-08-01T14:09:36;1.70;;;1.50;;
2646;SDS011;1333;50.958;6.770;2022-08-01T14:12:01;1.60;;;1.50;;
2646;SDS011;1333;50.958;6.770;2022-08-01T14:14:27;3.53;;;2.10;;
2646;SDS011;1333;50.958;6.770;2022-08-01T14:16:53;1.63;;;1.40;;
2646;SDS011;1333;50.958;6.770;2022-08-01T14:19:18;1.33;;;1.20;;
2646;SDS011;1333;50.958;6.770;2022-08-01T14:21:44;1.10;;;1.00;;
2646;SDS011;1333;50.958;6.770;2022-08-01T14:24:09;1.93;;;1.30;;
2646;SDS011;1333;50.958;6.770;2022-08-01T14:26:35;6.70;;;1.43;;
2646;SDS011;1333;50.958;6.770;2022-08-01T14:29:00;1.20;;;1.10;;
2646;SDS011;1333;50.958;6.770;2022-08-01T14:31:26;1.60;;;1.50;;
2646;SDS011;1333;50.958;6.770;2022-08-01T14:33:52;1.93;;;1.10;;
2646;SDS011;1333;50.958;6.770;2022-08-01T14:36:17;1.67;;;1.40;;
2646;SDS011;1333;50.958;6.770;2022-08-01T14:38:43;1.43;;;1.13;;
2646;SDS011;1333;50.958;6.770;2022-08-01T14:41:08;2.40;;;1.40;;
2646;SDS011;1333;50.958;6.770;2022-08-01T14:43:34;1.70;;;1.47;;
2646;SDS011;1333;50.958;6.770;2022-08-01T14:46:00;1.33;;;1.23;;
2646;SDS011;1333;50.958;6.770;2022-08-01T14:48:28;1.93;;;1.53;;
2646;SDS011;1333;50.958;6.770;2022-08-01T14:50:53;1.70;;;1.53;;
2646;SDS011;1333;50.958;6.770;2022-08-01T14:53:19;1.40;;;1.30;;
2646;SDS011;1333;50.958;6.770;2022-08-01T14:55:45;2.57;;;1.80;;
2646;SDS011;1333;50.958;6.770;2022-08-01T14:58:10;1.77;;;1.50;;
2646;SDS011;1333;50.958;6.770;2022-08-01T15:00:36;3.40;;;1.73;;
2646;SDS011;1333;50.958;6.770;2022-08-01T15:03:01;1.60;;;1.50;;
2646;SDS011;1333;50.958;6.770;2022-08-01T15:05:27;1.37;;;1.17;;
2646;SDS011;1333;50.958;6.770;2022-08-01T15:07:53;1.83;;;1.60;;
2646;SDS011;1333;50.958;6.770;2022-08-01T15:10:19;1.47;;;1.37;;
2646;SDS011;1333;50.958;6.770;2022-08-01T15:12:46;2.20;;;1.90;;
2646;SDS011;1333;50.958;6.770;2022-08-01T15:15:11;2.13;;;1.47;;
2646;SDS011;1333;50.958;6.770;2022-08-01T15:17:37;1.60;;;1.30;;
2646;SDS011;1333;50.958;6.770;2022-08-01T15:20:04;1.70;;;1.37;;
2646;SDS011;1333;50.958;6.770;2022-08-01T15:22:31;2.07;;;1.47;;
2646;SDS011;1333;50.958;6.770;2022-08-01T15:24:58;1.50;;;1.10;;
2646;SDS011;1333;50.958;6.770;2022-08-01T15:27:25;2.10;;;1.57;;
2646;SDS011;1333;50.958;6.770;2022-08-01T15:29:52;1.40;;;1.30;;
2646;SDS011;1333;50.958;6.770;2022-08-01T15:32:18;3.40;;;1.50;;
2646;SDS011;1333;50.958;6.770;2022-08-01T15:34:44;1.60;;;1.40;;
2646;SDS011;1333;50.958;6.770;2022-08-01T15:37:10;1.60;;;1.50;;
2646;SDS011;1333;50.958;6.770;2022-08-01T15:39:36;1.77;;;1.50;;
2646;SDS011;1333;50.958;6.770;2022-08-01T15:42:07;1.60;;;1.37;;
2646;SDS011;1333;50.958;6.770;2022-08-01T15:44:34;1.10;;;1.00;;
2646;SDS011;1333;50.958;6.770;2022-08-01T15:47:00;1.20;;;1.10;;
2646;SDS011;1333;50.958;6.770;2022-08-01T15:49:27;1.70;;;1.50;;
2646;SDS011;1333;50.958;6.770;2022-08-01T15:51:52;2.70;;;1.67;;
2646;SDS011;1333;50.958;6.770;2022-08-01T15:54:18;1.70;;;1.60;;
2646;SDS011;1333;50.958;6.770;2022-08-01T15:56:44;4.73;;;1.50;;
2646;SDS011;1333;50.958;6.770;2022-08-01T15:59:11;1.73;;;1.50;;
2646;SDS011;1333;50.958;6.770;2022-08-01T16:01:37;1.40;;;1.23;;
2646;SDS011;1333;50.958;6.770;2022-08-01T16:04:04;1.80;;;1.40;;
2646;SDS011;1333;50.958;6.770;2022-08-01T16:06:29;1.37;;;1.20;;
2646;SDS011;1333;50.958;6.770;2022-08-01T16:08:56;2.20;;;1.20;;
2646;SDS011;1333;50.958;6.770;2022-08-01T16:11:21;1.70;;;1.60;;